Time;durP1;ratioP1;P1;durP2;ratioP2;P2;SDS_P1;SDS_P2;PMS_P1;PMS_P2;Temp;Humidity;BMP_temperature;BMP_pressure;BME280_temperature;BME280_humidity;BME280_pressure;Samples;Min_cycle;Max_cycle;Signal;HPM_P1;HPM_P2
2023/02/20 00:00:48;;;;;;;1.30;1.00;;;19.60;63.50;;;;;;4975788;28;20459;-95
2023/02/20 00:03:16;;;;;;;1.63;0.93;;;19.60;63.50;;;;;;4974742;28;20484;-92
2023/02/20 00:05:43;;;;;;;1.37;1.27;;;19.60;63.60;;;;;;4974794;28;20447;-92
2023/02/20 00:08:10;;;;;;;1.30;1.00;;;19.60;63.40;;;;;;4975231;28;20445;-96
2023/02/20 00:10:36;;;;;;;1.30;1.00;;;19.70;63.60;;;;;;4974987;28;20483;-92
2023/02/20 00:13:03;;;;;;;1.40;0.90;;;19.60;63.40;;;;;;4975743;28;20455;-92
2023/02/20 00:15:32;;;;;;;1.00;0.80;;;19.60;63.50;;;;;;4974363;28;20962;-92
2023/02/20 00:17:58;;;;;;;1.60;1.13;;;19.60;63.40;;;;;;4975035;28;20455;-92
2023/02/20 00:20:29;;;;;;;1.60;1.10;;;19.60;63.50;;;;;;4976030;28;20970;-92
2023/02/20 00:22:56;;;;;;;1.93;0.90;;;19.60;63.40;;;;;;4979282;28;20472;-95
2023/02/20 00:25:23;;;;;;;1.40;1.10;;;19.60;63.40;;;;;;4978244;28;20989;-92
2023/02/20 00:27:51;;;;;;;1.20;1.10;;;19.60;63.40;;;;;;4978189;28;20491;-95
2023/02/20 00:30:20;;;;;;;2.03;1.13;;;19.60;63.40;;;;;;4977949;28;20445;-92
2023/02/20 00:32:50;;;;;;;1.37;1.03;;;19.60;63.40;;;;;;4978865;28;20448;-95
2023/02/20 00:35:18;;;;;;;2.07;1.47;;;19.60;63.40;;;;;;4978411;28;20468;-91
2023/02/20 00:37:45;;;;;;;1.30;1.07;;;19.60;63.50;;;;;;4977948;28;20447;-92
2023/02/20 00:40:14;;;;;;;1.13;0.93;;;19.60;63.50;;;;;;4977793;28;20437;-93
2023/02/20 00:42:41;;;;;;;1.20;0.87;;;19.60;63.40;;;;;;4977882;28;20448;-95
2023/02/20 00:45:09;;;;;;;1.30;1.00;;;19.50;63.30;;;;;;4978036;28;20449;-92
2023/02/20 00:47:36;;;;;;;2.40;1.20;;;19.60;63.40;;;;;;4977916;28;20486;-95
2023/02/20 00:50:06;;;;;;;1.50;0.80;;;19.60;63.20;;;;;;4977517;28;20536;-92
2023/02/20 00:52:32;;;;;;;1.60;1.10;;;19.50;63.20;;;;;;4977397;28;20455;-92
2023/02/20 00:54:59;;;;;;;1.50;1.20;;;19.50;63.20;;;;;;4977238;28;20484;-92
2023/02/20 00:57:26;;;;;;;1.10;0.90;;;19.50;63.20;;;;;;4977504;28;20536;-96
2023/02/20 00:59:53;;;;;;;1.63;1.27;;;19.50;63.20;;;;;;4977747;28;20484;-93
2023/02/20 01:02:20;;;;;;;1.10;1.00;;;19.50;63.30;;;;;;4977320;28;20799;-92
2023/02/20 01:04:47;;;;;;;1.60;1.00;;;19.60;63.20;;;;;;4977455;28;20447;-95
2023/02/20 01:07:16;;;;;;;1.20;1.00;;;19.50;63.30;;;;;;4977791;28;20940;-92
2023/02/20 01:09:43;;;;;;;1.23;1.13;;;19.50;63.30;;;;;;4977407;28;20453;-92
2023/02/20 01:12:10;;;;;;;1.00;0.83;;;19.60;63.30;;;;;;4977700;28;20498;-92
2023/02/20 01:14:38;;;;;;;1.20;1.00;;;19.50;63.10;;;;;;4977330;28;20529;-92
2023/02/20 01:17:04;;;;;;;1.20;1.10;;;19.50;63.20;;;;;;4977394;28;20535;-92
2023/02/20 01:19:31;;;;;;;1.20;0.93;;;19.50;63.20;;;;;;4977255;28;20545;-92
2023/02/20 01:21:59;;;;;;;0.90;0.80;;;19.50;63.20;;;;;;4976866;28;20445;-92
2023/02/20 01:24:27;;;;;;;1.63;1.10;;;19.50;63.10;;;;;;4976829;28;20552;-92
2023/02/20 01:26:54;;;;;;;1.40;0.90;;;19.50;63.10;;;;;;4977178;28;20515;-92
2023/02/20 01:29:21;;;;;;;1.63;1.00;;;19.50;63.10;;;;;;4977158;28;20453;-96
2023/02/20 01:31:49;;;;;;;1.10;0.80;;;19.50;63.10;;;;;;4976216;28;20481;-95
2023/02/20 01:34:17;;;;;;;1.00;0.80;;;19.50;63.10;;;;;;4976703;28;20542;-92
2023/02/20 01:36:48;;;;;;;1.57;1.00;;;19.50;63.10;;;;;;4976981;28;20460;-92
2023/02/20 01:39:17;;;;;;;1.20;1.10;;;19.50;63.00;;;;;;4976578;28;20547;-92
2023/02/20 01:41:50;;;;;;;1.90;1.07;;;19.50;63.00;;;;;;4976894;28;20462;-92
2023/02/20 01:44:25;;;;;;;1.20;0.83;;;19.60;63.00;;;;;;4976756;28;20449;-92
2023/02/20 01:46:55;;;;;;;1.00;0.70;;;19.50;63.00;;;;;;4976839;28;20520;-93
2023/02/20 01:49:35;;;;;;;1.50;1.20;;;19.50;63.10;;;;;;4976766;28;20525;-92
2023/02/20 01:52:09;;;;;;;1.00;0.83;;;19.50;63.10;;;;;;4976341;28;20508;-92
2023/02/20 01:54:39;;;;;;;1.00;0.77;;;19.50;63.10;;;;;;4976724;28;20580;-95
2023/02/20 01:57:13;;;;;;;4.90;1.00;;;19.50;63.90;;;;;;4976842;28;20441;-92
2023/02/20 01:59:43;;;;;;;1.10;0.80;;;19.50;62.90;;;;;;4977674;28;20448;-96
2023/02/20 02:02:11;;;;;;;1.20;0.90;;;19.40;63.70;;;;;;4977066;28;20437;-93
2023/02/20 02:04:40;;;;;;;1.20;0.90;;;19.40;62.90;;;;;;4977165;28;20799;-92
2023/02/20 02:07:07;;;;;;;1.50;1.00;;;19.60;63.00;;;;;;4976680;28;20520;-96
2023/02/20 02:09:39;;;;;;;1.10;0.80;;;19.40;62.80;;;;;;4976038;28;21048;-95
2023/02/20 02:12:08;;;;;;;1.40;1.00;;;19.40;62.80;;;;;;4976895;28;20806;-92
2023/02/20 02:14:35;;;;;;;1.40;1.00;;;19.40;62.80;;;;;;4976474;28;20575;-92
2023/02/20 02:17:28;;;;;;;1.53;1.00;;;19.40;62.80;;;;;;4976754;28;20480;-92
2023/02/20 02:20:30;;;;;;;1.20;1.10;;;19.40;62.80;;;;;;4967921;28;20447;-93
2023/02/20 02:23:44;;;;;;;1.20;0.90;;;19.40;62.80;;;;;;4975852;28;20969;-96
2023/02/20 02:26:35;;;;;;;1.10;0.90;;;19.40;62.80;;;;;;4969276;28;20522;-91
2023/02/20 02:29:39;;;;;;;1.53;1.20;;;19.40;62.80;;;;;;4976529;28;20794;-92
2023/02/20 02:32:32;;;;;;;1.20;0.80;;;19.40;62.80;;;;;;4962963;28;20480;-92
2023/02/20 02:35:29;;;;;;;1.10;0.93;;;19.40;62.90;;;;;;4976572;28;20794;-92
2023/02/20 02:38:04;;;;;;;1.07;0.90;;;19.40;62.90;;;;;;4976262;28;20449;-95
2023/02/20 02:40:39;;;;;;;1.87;1.00;;;19.40;62.90;;;;;;4975470;28;20981;-92
2023/02/20 02:43:13;;;;;;;1.10;0.90;;;19.40;62.80;;;;;;4975569;28;20454;-92
2023/02/20 02:45:46;;;;;;;1.20;0.80;;;19.40;62.90;;;;;;4975822;28;20453;-92
2023/02/20 02:48:20;;;;;;;2.23;1.00;;;19.50;62.90;;;;;;4976304;28;20910;-92
2023/02/20 02:50:49;;;;;;;1.50;0.90;;;19.40;62.70;;;;;;4976141;28;20441;-96
2023/02/20 02:53:18;;;;;;;1.37;1.10;;;19.40;62.80;;;;;;4975446;28;20471;-92
2023/02/20 02:55:45;;;;;;;1.33;1.10;;;19.40;62.80;;;;;;4975776;28;20536;-93
2023/02/20 02:58:13;;;;;;;1.30;0.90;;;19.50;62.90;;;;;;4976108;28;20447;-96
2023/02/20 03:00:43;;;;;;;1.23;1.00;;;19.50;62.90;;;;;;4975326;28;20526;-96
2023/02/20 03:03:13;;;;;;;1.20;0.90;;;19.40;62.80;;;;;;4975583;28;20524;-92
2023/02/20 03:05:47;;;;;;;1.20;0.90;;;19.40;62.80;;;;;;4975995;28;20441;-95
2023/02/20 03:08:30;;;;;;;1.10;0.90;;;19.40;62.80;;;;;;4975936;28;20440;-92
2023/02/20 03:11:01;;;;;;;1.10;0.90;;;19.40;62.70;;;;;;4976165;28;20828;-92
2023/02/20 03:16:20;;;;;;;1.20;1.03;;;19.40;62.70;;;;;;4975020;28;20941;-92
2023/02/20 03:18:50;;;;;;;1.20;1.03;;;19.40;62.70;;;;;;4975864;28;20453;-92
2023/02/20 03:21:20;;;;;;;1.13;1.03;;;19.40;62.70;;;;;;4975216;28;20523;-92
2023/02/20 03:23:54;;;;;;;1.00;0.80;;;19.40;63.20;;;;;;4975383;28;20457;-96
2023/02/20 03:26:31;;;;;;;1.10;0.93;;;19.40;62.70;;;;;;4975295;28;20572;-95
2023/02/20 03:29:03;;;;;;;1.37;1.10;;;19.40;62.60;;;;;;4974865;28;20437;-92
2023/02/20 03:31:35;;;;;;;1.03;0.80;;;19.50;62.80;;;;;;4975092;28;21133;-96
2023/02/20 03:45:26;;;;;;;1.00;0.80;;;19.30;62.50;;;;;;4974885;28;20420;-92
2023/02/20 03:47:57;;;;;;;1.10;0.90;;;19.30;62.70;;;;;;4975307;28;20441;-93
2023/02/20 03:53:08;;;;;;;1.37;1.27;;;19.30;62.50;;;;;;4974943;28;20569;-92
2023/02/20 03:55:36;;;;;;;1.07;0.90;;;19.30;62.60;;;;;;4976893;28;20463;-92
2023/02/20 03:58:07;;;;;;;1.07;0.90;;;19.30;62.50;;;;;;4978605;28;20447;-92
2023/02/20 04:00:40;;;;;;;1.20;1.00;;;19.30;62.50;;;;;;4979207;28;20456;-92
2023/02/20 04:03:13;;;;;;;1.10;1.00;;;19.50;62.80;;;;;;4978553;28;20453;-91
2023/02/20 04:05:44;;;;;;;1.17;0.93;;;19.50;62.80;;;;;;4978747;28;21003;-91
2023/02/20 04:08:16;;;;;;;1.10;0.90;;;19.30;62.50;;;;;;4979072;28;20452;-92
2023/02/20 04:10:49;;;;;;;1.00;0.90;;;19.30;62.50;;;;;;4978251;28;20508;-91
2023/02/20 04:13:18;;;;;;;1.07;0.80;;;19.30;62.50;;;;;;4978392;28;20476;-92
2023/02/20 04:15:45;;;;;;;1.10;0.90;;;19.30;62.40;;;;;;4978622;28;20449;-92
2023/02/20 04:18:17;;;;;;;1.10;0.90;;;19.30;62.40;;;;;;4978395;28;20456;-92
2023/02/20 04:20:44;;;;;;;1.27;1.10;;;19.30;63.40;;;;;;4978809;28;20460;-92
2023/02/20 04:23:15;;;;;;;1.43;0.90;;;19.30;62.50;;;;;;4977923;28;20987;-92
2023/02/20 04:25:47;;;;;;;1.07;0.80;;;19.30;62.40;;;;;;4978319;28;20548;-95
2023/02/20 04:28:15;;;;;;;1.20;0.90;;;19.40;62.50;;;;;;4978601;28;20445;-92
2023/02/20 04:30:42;;;;;;;1.10;0.80;;;19.30;62.40;;;;;;4978059;28;20507;-92
2023/02/20 04:33:12;;;;;;;1.10;0.87;;;19.40;62.40;;;;;;4977475;28;20580;-92
2023/02/20 04:35:39;;;;;;;1.10;0.80;;;19.30;62.40;;;;;;4978747;28;20507;-92
2023/02/20 04:38:06;;;;;;;1.10;0.97;;;19.40;62.50;;;;;;4978150;28;20452;-92
2023/02/20 04:40:34;;;;;;;1.20;0.80;;;19.30;62.40;;;;;;4977498;28;20455;-94
2023/02/20 04:43:02;;;;;;;1.10;0.87;;;19.30;62.40;;;;;;4978414;28;20453;-92
2023/02/20 04:45:29;;;;;;;1.10;0.90;;;19.30;62.40;;;;;;4977860;28;20963;-92
2023/02/20 04:47:56;;;;;;;1.00;0.80;;;19.40;62.50;;;;;;4977490;28;20454;-92
2023/02/20 04:50:28;;;;;;;1.10;1.00;;;19.30;63.30;;;;;;4978208;28;20448;-92
2023/02/20 04:52:55;;;;;;;1.70;1.40;;;19.30;62.30;;;;;;4977683;28;20483;-92
2023/02/20 04:55:22;;;;;;;1.10;0.80;;;19.40;62.60;;;;;;4978099;28;20484;-92
2023/02/20 04:57:50;;;;;;;1.00;0.90;;;19.30;62.40;;;;;;4978184;28;20775;-95
2023/02/20 05:00:20;;;;;;;1.07;0.87;;;19.40;62.40;;;;;;4978080;28;20472;-92
2023/02/20 05:02:48;;;;;;;1.70;1.00;;;19.30;62.30;;;;;;4978327;28;20513;-95
2023/02/20 05:05:18;;;;;;;1.10;0.80;;;19.30;62.40;;;;;;4977340;28;20548;-92
2023/02/20 05:07:44;;;;;;;1.00;0.80;;;19.40;62.50;;;;;;4976901;28;20459;-92
2023/02/20 05:10:14;;;;;;;1.10;0.93;;;19.30;62.40;;;;;;4978042;28;20453;-95
2023/02/20 05:12:41;;;;;;;1.00;0.87;;;19.30;62.30;;;;;;4976954;28;20481;-92
2023/02/20 05:15:08;;;;;;;1.10;0.80;;;19.40;62.50;;;;;;4977304;28;20539;-92
2023/02/20 05:17:36;;;;;;;1.40;0.80;;;19.30;62.30;;;;;;4977301;28;20453;-94
2023/02/20 05:20:03;;;;;;;1.60;1.10;;;19.30;62.30;;;;;;4978112;28;20448;-92
2023/02/20 05:22:29;;;;;;;1.10;0.90;;;19.30;62.30;;;;;;4977594;28;20451;-96
2023/02/20 05:24:56;;;;;;;1.13;1.00;;;19.30;62.40;;;;;;4977085;28;20492;-92
2023/02/20 05:27:24;;;;;;;1.00;0.70;;;19.30;62.30;;;;;;4977470;28;20210;-92
2023/02/20 05:29:53;;;;;;;1.07;0.93;;;19.30;62.30;;;;;;4977356;28;20461;-92
2023/02/20 05:32:21;;;;;;;1.20;0.87;;;19.30;62.30;;;;;;4976854;28;20491;-95
2023/02/20 05:34:49;;;;;;;1.40;0.90;;;19.30;62.20;;;;;;4976826;28;20944;-92
2023/02/20 05:37:18;;;;;;;1.23;0.83;;;19.30;62.30;;;;;;4977180;28;20464;-95
2023/02/20 05:39:46;;;;;;;1.00;0.80;;;19.40;62.30;;;;;;4976422;28;20492;-92
2023/02/20 05:42:13;;;;;;;1.10;0.83;;;19.20;62.20;;;;;;4976935;28;20471;-92
2023/02/20 05:44:40;;;;;;;1.03;0.80;;;19.20;62.10;;;;;;4976786;28;20451;-92
2023/02/20 05:47:07;;;;;;;1.10;0.80;;;19.20;62.10;;;;;;4976189;28;20451;-92
2023/02/20 05:49:35;;;;;;;1.10;1.00;;;19.20;62.10;;;;;;4976765;28;20527;-92
2023/02/20 05:52:08;;;;;;;1.27;0.90;;;19.40;62.30;;;;;;4976610;28;20476;-92
2023/02/20 05:54:35;;;;;;;1.10;0.70;;;19.20;62.00;;;;;;4976354;28;20449;-92
2023/02/20 05:57:02;;;;;;;1.63;0.80;;;19.20;61.90;;;;;;4976597;28;20457;-93
2023/02/20 05:59:29;;;;;;;1.43;1.00;;;19.30;62.10;;;;;;4976493;28;21032;-92
2023/02/20 06:01:56;;;;;;;1.10;0.90;;;19.30;62.00;;;;;;4976688;28;20452;-92
2023/02/20 06:04:23;;;;;;;1.27;1.03;;;19.30;62.10;;;;;;4976235;28;20932;-91
2023/02/20 06:06:50;;;;;;;1.40;1.00;;;19.30;62.10;;;;;;4976043;28;20459;-95
2023/02/20 06:09:18;;;;;;;1.10;0.83;;;19.30;62.20;;;;;;4976954;28;20536;-92
2023/02/20 06:11:49;;;;;;;1.07;0.87;;;19.20;62.10;;;;;;4976103;28;20452;-92
2023/02/20 06:14:17;;;;;;;1.20;1.10;;;19.40;62.40;;;;;;4976691;28;20438;-92
2023/02/20 06:16:44;;;;;;;1.33;1.00;;;19.20;62.40;;;;;;4976121;28;20453;-92
2023/02/20 06:19:11;;;;;;;1.03;0.77;;;19.20;63.20;;;;;;4976708;28;20802;-92
2023/02/20 06:21:40;;;;;;;2.80;1.30;;;19.40;62.60;;;;;;4976110;28;20458;-92
2023/02/20 06:24:07;;;;;;;1.10;1.00;;;19.30;62.60;;;;;;4976090;28;20552;-93
2023/02/20 06:26:39;;;;;;;1.10;0.90;;;19.20;62.40;;;;;;4977208;28;20458;-91
2023/02/20 06:29:08;;;;;;;1.00;0.83;;;19.30;62.70;;;;;;4978090;28;20216;-90
2023/02/20 06:31:35;;;;;;;6.53;1.30;;;19.30;62.40;;;;;;4976659;28;20449;-88
2023/02/20 06:34:02;;;;;;;3.10;1.47;;;19.40;62.50;;;;;;4975738;28;20489;-90
2023/02/20 06:36:31;;;;;;;1.20;1.10;;;19.40;62.50;;;;;;4975491;28;20447;-95
2023/02/20 06:38:59;;;;;;;1.10;0.93;;;19.30;62.40;;;;;;4976267;28;20818;-93
2023/02/20 06:41:26;;;;;;;2.60;1.13;;;19.30;62.60;;;;;;4975442;28;20451;-89
2023/02/20 06:43:54;;;;;;;2.63;1.07;;;19.30;62.90;;;;;;4975718;28;20466;-89
2023/02/20 06:46:22;;;;;;;1.83;1.13;;;19.50;63.10;;;;;;4975250;28;20950;-88
2023/02/20 06:48:51;;;;;;;1.30;1.03;;;19.40;63.00;;;;;;4976099;28;20511;-96
2023/02/20 06:51:21;;;;;;;1.70;0.90;;;19.40;63.00;;;;;;4979936;28;20437;-90
2023/02/20 06:53:48;;;;;;;1.20;0.80;;;19.40;62.90;;;;;;4974948;28;20860;-93
2023/02/20 06:56:18;;;;;;;4.53;1.40;;;19.40;63.00;;;;;;4974948;28;20480;-89
2023/02/20 06:58:46;;;;;;;1.50;1.40;;;19.40;63.10;;;;;;4975185;28;20445;-88
2023/02/20 07:01:14;;;;;;;2.33;1.00;;;19.40;63.20;;;;;;4974975;28;20982;-88
2023/02/20 07:03:41;;;;;;;1.20;1.03;;;19.40;63.30;;;;;;4955959;29;20434;-89
2023/02/20 07:06:08;;;;;;;1.50;1.00;;;19.30;63.30;;;;;;4955483;29;20448;-87
2023/02/20 07:08:35;;;;;;;2.30;0.90;;;19.30;63.30;;;;;;4955679;29;20441;-90
2023/02/20 07:11:02;;;;;;;1.30;1.10;;;19.40;63.30;;;;;;4955574;29;20514;-91
2023/02/20 07:13:28;;;;;;;3.30;1.37;;;19.30;63.30;;;;;;4955502;29;20481;-91
2023/02/20 07:15:55;;;;;;;1.30;1.00;;;19.30;63.30;;;;;;4955634;29;20520;-92
2023/02/20 07:18:26;;;;;;;3.20;1.07;;;19.30;63.30;;;;;;4955689;29;20449;-92
2023/02/20 07:20:53;;;;;;;1.60;1.00;;;19.30;63.50;;;;;;4956334;29;20453;-91
2023/02/20 07:23:20;;;;;;;4.23;1.63;;;19.30;63.60;;;;;;4955800;29;20857;-92
2023/02/20 07:25:48;;;;;;;6.60;1.20;;;19.30;63.40;;;;;;4955401;29;20473;-92
2023/02/20 07:28:16;;;;;;;1.20;1.10;;;19.30;63.50;;;;;;4955959;29;20438;-91
2023/02/20 07:30:43;;;;;;;2.30;1.07;;;19.50;63.70;;;;;;4957331;28;21034;-93
2023/02/20 07:33:10;;;;;;;2.10;1.07;;;19.30;63.30;;;;;;4959328;29;20490;-93
2023/02/20 07:35:38;;;;;;;2.30;1.23;;;19.30;63.40;;;;;;4959493;29;20457;-86
2023/02/20 07:38:05;;;;;;;2.40;1.00;;;19.30;63.50;;;;;;4973561;28;20790;-89
2023/02/20 07:40:32;;;;;;;1.40;1.20;;;19.30;63.30;;;;;;4978606;28;20477;-92
2023/02/20 07:42:59;;;;;;;1.87;1.07;;;19.50;63.50;;;;;;4978566;28;20445;-89
2023/02/20 07:45:26;;;;;;;1.53;1.10;;;19.30;63.40;;;;;;4978211;28;20452;-89
2023/02/20 07:47:53;;;;;;;2.63;2.00;;;19.30;63.60;;;;;;4978298;28;20972;-93
2023/02/20 07:50:20;;;;;;;3.50;1.90;;;19.40;63.90;;;;;;4979525;28;21027;-94
2023/02/20 07:52:48;;;;;;;4.00;1.50;;;19.40;64.20;;;;;;4978336;28;20487;-90
2023/02/20 07:55:17;;;;;;;3.23;1.47;;;19.40;64.50;;;;;;4978660;28;20957;-90
2023/02/20 07:57:48;;;;;;;1.57;1.30;;;19.40;64.40;;;;;;4978664;28;20452;-90
2023/02/20 08:00:16;;;;;;;1.43;1.33;;;19.40;64.60;;;;;;4978552;28;20488;-88
2023/02/20 08:02:44;;;;;;;3.57;1.43;;;19.40;64.60;;;;;;4977897;28;20456;-91
2023/02/20 08:05:11;;;;;;;3.80;1.80;;;19.40;64.70;;;;;;4961436;28;20528;-93
2023/02/20 08:07:38;;;;;;;7.23;2.43;;;19.60;64.90;;;;;;4978336;28;20865;-89
2023/02/20 08:10:06;;;;;;;2.03;1.57;;;19.40;64.30;;;;;;4978236;28;20448;-89
2023/02/20 08:12:33;;;;;;;2.33;1.47;;;19.40;64.40;;;;;;4978005;28;20454;-89
2023/02/20 08:15:10;;;;;;;4.50;1.90;;;19.40;64.40;;;;;;4977818;28;20936;-89
2023/02/20 08:17:37;;;;;;;2.23;2.03;;;19.40;64.30;;;;;;4977912;28;20483;-89
2023/02/20 08:20:05;;;;;;;2.17;1.53;;;19.30;64.40;;;;;;4978014;28;20437;-89
2023/02/20 08:22:32;;;;;;;3.20;1.50;;;19.30;64.40;;;;;;4977625;28;20453;-91
2023/02/20 08:24:58;;;;;;;1.80;1.40;;;19.30;64.30;;;;;;4977977;28;20982;-93
2023/02/20 08:27:27;;;;;;;4.23;1.30;;;19.30;64.40;;;;;;4977804;28;20496;-89
2023/02/20 08:29:54;;;;;;;2.80;1.60;;;19.30;64.60;;;;;;4977883;28;20803;-90
2023/02/20 08:32:21;;;;;;;2.57;1.73;;;19.50;64.70;;;;;;4977787;28;20445;-89
2023/02/20 08:34:47;;;;;;;1.53;1.40;;;19.30;64.40;;;;;;4977232;28;20563;-89
2023/02/20 08:37:14;;;;;;;1.43;1.30;;;19.30;64.40;;;;;;4977761;28;20452;-89
2023/02/20 08:39:41;;;;;;;2.47;1.50;;;19.40;64.50;;;;;;4977527;28;20500;-91
2023/02/20 08:42:08;;;;;;;1.93;1.40;;;19.30;64.20;;;;;;4977148;28;20971;-89
2023/02/20 08:44:37;;;;;;;1.77;1.40;;;19.30;64.10;;;;;;4977076;28;20445;-89
2023/02/20 08:47:03;;;;;;;1.90;1.57;;;19.50;64.20;;;;;;4977108;28;20457;-89
2023/02/20 08:49:30;;;;;;;1.77;1.37;;;19.30;64.00;;;;;;4977297;28;20780;-89
2023/02/20 08:51:57;;;;;;;1.63;1.53;;;19.30;64.20;;;;;;4977220;28;20437;-90
2023/02/20 08:54:24;;;;;;;2.20;2.00;;;19.30;64.20;;;;;;4976814;28;21014;-89
2023/02/20 08:56:51;;;;;;;2.20;1.70;;;19.30;64.10;;;;;;4977207;28;20511;-89
2023/02/20 08:59:18;;;;;;;1.97;1.47;;;19.30;64.10;;;;;;4977238;28;20441;-89
2023/02/20 09:01:46;;;;;;;2.53;1.70;;;19.30;64.20;;;;;;4976932;28;20446;-90
2023/02/20 09:04:14;;;;;;;2.60;1.50;;;19.30;63.90;;;;;;4976885;28;20544;-89
2023/02/20 09:06:41;;;;;;;1.40;1.30;;;19.30;64.00;;;;;;4976797;28;20452;-89
2023/02/20 09:09:08;;;;;;;1.60;1.50;;;19.40;63.90;;;;;;4976772;28;20449;-94
2023/02/20 09:11:34;;;;;;;10.00;2.60;;;19.30;64.10;;;;;;4977087;28;20912;-84
2023/02/20 09:14:01;;;;;;;2.27;2.17;;;19.30;63.70;;;;;;4976205;28;20489;-87
2023/02/20 09:16:28;;;;;;;4.87;1.90;;;19.30;63.60;;;;;;4977369;28;20453;-90
2023/02/20 09:18:56;;;;;;;1.73;1.60;;;19.30;63.70;;;;;;4977405;28;20449;-87
2023/02/20 09:21:23;;;;;;;3.67;2.10;;;19.30;63.60;;;;;;4977907;28;20441;-88
2023/02/20 09:23:50;;;;;;;2.77;1.70;;;19.30;63.80;;;;;;4977671;28;20475;-87
2023/02/20 09:26:17;;;;;;;2.80;1.50;;;19.50;63.70;;;;;;4976880;28;20485;-88
2023/02/20 09:28:43;;;;;;;1.50;1.40;;;19.30;63.70;;;;;;4977511;28;20445;-89
2023/02/20 09:31:11;;;;;;;3.00;1.80;;;19.30;63.40;;;;;;4977492;28;20824;-86
2023/02/20 09:33:37;;;;;;;5.63;2.20;;;19.30;63.30;;;;;;4977042;28;20484;-86
2023/02/20 09:36:07;;;;;;;2.10;1.77;;;19.30;63.30;;;;;;4977384;28;20533;-87
2023/02/20 09:38:33;;;;;;;1.90;1.70;;;19.30;63.30;;;;;;4976869;28;20442;-88
2023/02/20 09:41:01;;;;;;;2.80;2.10;;;19.40;63.60;;;;;;4976826;28;20447;-84
2023/02/20 09:43:43;;;;;;;9.30;2.50;;;19.40;63.70;;;;;;4976429;28;20954;-83
2023/02/20 09:46:14;;;;;;;3.23;2.10;;;19.40;63.50;;;;;;4976548;28;20452;-85
2023/02/20 09:48:54;;;;;;;4.37;2.50;;;19.40;63.40;;;;;;4976373;28;20451;-88
2023/02/20 09:51:25;;;;;;;2.73;2.10;;;19.40;63.50;;;;;;4977126;28;20541;-92
2023/02/20 09:53:57;;;;;;;6.10;3.40;;;19.40;63.50;;;;;;4976466;28;20507;-88
2023/02/20 09:56:28;;;;;;;12.63;3.27;;;19.50;63.40;;;;;;4976404;28;20476;-86
2023/02/20 09:59:02;;;;;;;3.57;2.20;;;19.40;63.30;;;;;;4976947;28;20434;-86
2023/02/20 10:01:30;;;;;;;3.67;3.00;;;19.40;63.30;;;;;;4976510;28;20811;-87
2023/02/20 10:03:59;;;;;;;3.60;3.13;;;19.40;63.40;;;;;;4976207;28;20452;-86
2023/02/20 10:06:29;;;;;;;11.80;8.43;;;19.40;63.60;;;;;;4976008;28;20453;-87
2023/02/20 10:08:57;;;;;;;18.67;16.77;;;19.40;63.60;;;;;;4976285;28;20452;-87
2023/02/20 10:11:41;;;;;;;101.20;79.50;;;19.50;63.80;;;;;;4976097;28;20449;-88
2023/02/20 10:14:34;;;;;;;67.50;52.77;;;19.40;63.80;;;;;;4976078;28;20482;-85
2023/02/20 10:17:12;;;;;;;78.97;60.00;;;19.40;63.70;;;;;;4976620;28;20447;-88
2023/02/20 10:19:48;;;;;;;101.93;65.53;;;19.40;63.90;;;;;;4976867;28;20528;-87
2023/02/20 10:22:24;;;;;;;60.90;47.93;;;19.40;63.50;;;;;;4981367;28;20447;-96
2023/02/20 10:25:00;;;;;;;59.80;48.20;;;19.40;63.80;;;;;;4977248;28;20554;-83
2023/02/20 10:27:39;;;;;;;45.93;36.50;;;19.40;63.80;;;;;;4979460;28;20944;-83
2023/02/20 10:30:10;;;;;;;40.53;34.00;;;19.40;63.80;;;;;;4975447;28;20448;-84
2023/02/20 10:32:43;;;;;;;44.37;34.90;;;19.40;63.70;;;;;;4975541;28;20441;-87
2023/02/20 10:35:14;;;;;;;45.00;32.17;;;19.40;63.80;;;;;;4975106;28;20483;-83
2023/02/20 10:37:57;;;;;;;38.67;28.07;;;19.40;63.80;;;;;;4976462;28;20441;-94
2023/02/20 18:17:10;;;;;;;4.00;2.37;;;21.60;67.00;;;;;;4952322;28;20977;-93
2023/02/20 18:19:37;;;;;;;5.87;2.63;;;21.50;67.10;;;;;;4938307;29;20465;-93
2023/02/20 18:22:04;;;;;;;2.63;2.43;;;21.50;67.00;;;;;;4937327;29;20561;-92
2023/02/20 18:24:31;;;;;;;3.40;2.63;;;21.60;67.10;;;;;;4938513;29;20558;-95
2023/02/20 18:26:58;;;;;;;4.43;2.10;;;21.60;67.00;;;;;;4937834;29;20880;-92
2023/02/20 18:29:36;;;;;;;2.50;2.30;;;21.60;67.00;;;;;;4934570;29;20967;-90
2023/02/20 18:32:06;;;;;;;2.27;2.07;;;21.60;65.80;;;;;;4939669;29;20427;-90
2023/02/20 18:34:37;;;;;;;3.40;2.33;;;21.60;66.40;;;;;;4939616;29;20482;-91
2023/02/20 18:37:04;;;;;;;2.00;1.90;;;21.60;66.60;;;;;;4938428;29;20443;-88
2023/02/20 18:39:30;;;;;;;4.07;2.40;;;21.70;66.60;;;;;;4937323;29;21018;-88
2023/02/20 18:41:57;;;;;;;2.17;1.90;;;21.60;66.30;;;;;;4938022;29;20443;-88
2023/02/20 18:44:24;;;;;;;2.37;2.13;;;21.60;66.30;;;;;;4936765;29;20924;-88
2023/02/20 18:46:51;;;;;;;2.60;2.40;;;21.70;66.30;;;;;;4936706;29;20847;-89
2023/02/20 18:49:18;;;;;;;3.63;2.27;;;21.70;66.30;;;;;;4936827;29;20786;-90
2023/02/20 18:51:46;;;;;;;2.63;2.43;;;21.70;66.40;;;;;;4936401;29;20477;-90
2023/02/20 18:54:17;;;;;;;2.20;1.93;;;21.70;66.20;;;;;;4936921;29;20573;-87
2023/02/20 18:56:46;;;;;;;3.10;2.80;;;21.70;66.20;;;;;;4937258;29;20453;-88
2023/02/20 18:59:12;;;;;;;2.53;2.10;;;21.70;66.20;;;;;;4938181;29;20537;-94
2023/02/20 19:01:41;;;;;;;2.57;2.10;;;21.70;66.20;;;;;;4941748;29;20445;-90
2023/02/20 19:04:09;;;;;;;2.33;2.10;;;21.70;66.10;;;;;;4942750;29;20461;-89
2023/02/20 19:06:39;;;;;;;2.90;2.67;;;21.70;66.10;;;;;;4938916;29;20459;-88
2023/02/20 19:09:08;;;;;;;4.80;3.13;;;21.70;66.10;;;;;;4939641;29;20565;-90
2023/02/20 19:11:35;;;;;;;4.50;2.57;;;21.70;66.10;;;;;;4940131;29;20443;-89
2023/02/20 19:14:02;;;;;;;3.10;2.30;;;21.70;66.10;;;;;;4944028;29;20480;-96
2023/02/20 19:16:31;;;;;;;2.17;1.97;;;21.70;66.10;;;;;;4937585;29;20454;-89
2023/02/20 19:18:58;;;;;;;2.03;1.83;;;21.80;66.10;;;;;;4941861;29;20482;-89
2023/02/20 19:21:25;;;;;;;2.40;2.20;;;21.70;66.10;;;;;;4937683;29;20538;-89
2023/02/20 19:23:52;;;;;;;2.10;1.90;;;21.70;66.10;;;;;;4936552;29;20950;-90
2023/02/20 19:26:20;;;;;;;3.20;2.77;;;21.60;65.90;;;;;;4936080;29;20458;-92
2023/02/20 19:28:47;;;;;;;2.40;2.20;;;21.90;66.10;;;;;;4936438;29;20533;-90
2023/02/20 19:31:14;;;;;;;2.00;1.90;;;21.70;65.90;;;;;;4937509;29;20423;-92
2023/02/20 19:33:41;;;;;;;2.90;2.43;;;21.80;66.00;;;;;;4936125;29;20450;-91
2023/02/20 19:36:18;;;;;;;2.03;1.80;;;21.70;65.90;;;;;;4922737;29;20491;-90
2023/02/20 19:38:45;;;;;;;2.87;2.10;;;21.60;65.80;;;;;;4910914;29;20816;-96
2023/02/20 19:41:16;;;;;;;2.43;2.20;;;21.60;65.80;;;;;;4944678;29;20515;-90
2023/02/20 19:43:46;;;;;;;1.93;1.53;;;21.60;65.80;;;;;;4941151;29;20804;-96
2023/02/20 19:46:14;;;;;;;2.37;2.10;;;21.80;66.00;;;;;;4936057;29;20453;-94
2023/02/20 19:48:43;;;;;;;2.40;2.20;;;21.60;65.70;;;;;;4936231;29;20498;-91
2023/02/20 19:51:10;;;;;;;2.17;2.00;;;21.80;66.00;;;;;;4936308;29;20531;-93
2023/02/20 19:53:36;;;;;;;2.27;2.07;;;21.80;66.00;;;;;;4936281;29;20472;-91
2023/02/20 19:56:03;;;;;;;2.67;2.07;;;21.60;65.70;;;;;;4935890;29;20501;-90
2023/02/20 19:58:30;;;;;;;2.10;1.90;;;21.60;65.70;;;;;;4938831;29;20459;-91
2023/02/20 20:00:58;;;;;;;2.20;2.00;;;21.60;65.70;;;;;;4941151;29;20458;-93
2023/02/20 20:03:25;;;;;;;2.40;2.20;;;21.60;65.70;;;;;;4940465;29;20456;-95
2023/02/20 20:05:52;;;;;;;1.80;1.70;;;21.60;65.70;;;;;;4938482;29;20455;-91
2023/02/20 20:08:22;;;;;;;2.20;2.00;;;21.50;65.60;;;;;;4943353;29;20930;-95
2023/02/20 20:10:49;;;;;;;2.30;2.00;;;21.60;65.70;;;;;;4939159;29;20544;-93
2023/02/20 20:13:16;;;;;;;3.07;2.00;;;21.60;65.70;;;;;;4935887;29;20461;-89
2023/02/20 20:15:43;;;;;;;2.90;2.30;;;21.70;65.80;;;;;;4935597;29;20486;-82
2023/02/20 20:18:12;;;;;;;3.40;1.80;;;21.50;65.50;;;;;;4935527;29;20978;-82
2023/02/20 20:20:52;;;;;;;2.40;2.20;;;21.50;64.90;;;;;;4935905;29;20451;-95
2023/02/20 20:23:57;;;;;;;3.80;2.30;;;21.40;64.10;;;;;;4937035;29;20470;-95
